createdAt,value
2023-03-27T00:01:00.120Z,1.63
2023-03-27T00:03:27.277Z,1.27
2023-03-27T00:06:00.717Z,1.10
2023-03-27T00:08:27.460Z,1.30
2023-03-27T00:10:55.119Z,1.27
2023-03-27T00:13:21.735Z,1.40
2023-03-27T00:15:48.081Z,1.23
2023-03-27T00:18:15.746Z,1.40
2023-03-27T00:20:42.541Z,1.10
2023-03-27T00:23:08.980Z,1.27
2023-03-27T00:25:35.503Z,1.00
2023-03-27T00:28:02.680Z,1.20
2023-03-27T00:30:30.130Z,1.20
2023-03-27T00:32:56.748Z,1.50
2023-03-27T00:35:24.033Z,1.30
2023-03-27T00:37:50.630Z,1.30
2023-03-27T00:40:19.983Z,1.10
2023-03-27T00:42:48.107Z,1.10
2023-03-27T00:45:16.248Z,1.10
2023-03-27T00:47:42.677Z,1.27
2023-03-27T00:50:16.833Z,1.10
2023-03-27T00:52:44.479Z,1.27
2023-03-27T00:55:14.157Z,1.20
2023-03-27T00:57:46.013Z,1.17
2023-03-27T01:00:14.366Z,1.00
2023-03-27T01:02:42.667Z,1.10
2023-03-27T01:05:09.979Z,1.20
2023-03-27T01:07:37.206Z,1.17
2023-03-27T01:10:07.688Z,1.00
2023-03-27T01:12:53.133Z,1.20
2023-03-27T01:15:48.727Z,1.40
2023-03-27T01:18:21.434Z,1.00
2023-03-27T01:21:02.227Z,1.10
2023-03-27T01:24:00.123Z,1.20
2023-03-27T01:26:46.078Z,1.07
2023-03-27T01:29:25.234Z,1.20
2023-03-27T01:31:51.697Z,1.17
2023-03-27T01:34:33.440Z,1.20
2023-03-27T01:37:12.400Z,1.03
2023-03-27T01:39:42.870Z,1.20
2023-03-27T01:42:09.396Z,1.10
2023-03-27T01:44:45.292Z,1.20
2023-03-27T01:47:21.495Z,0.97
2023-03-27T01:49:57.832Z,1.10
2023-03-27T01:52:28.131Z,1.03
2023-03-27T01:54:58.187Z,1.53
2023-03-27T01:57:27.838Z,1.10
2023-03-27T02:00:19.372Z,0.90
2023-03-27T02:02:49.321Z,0.70
2023-03-27T02:05:19.585Z,0.80
2023-03-27T02:07:51.462Z,0.80
2023-03-27T02:10:22.986Z,1.20
2023-03-27T02:12:52.508Z,0.80
2023-03-27T02:15:23.647Z,1.00
2023-03-27T02:18:04.932Z,0.70
2023-03-27T02:20:32.648Z,0.70
2023-03-27T02:23:02.281Z,0.90
2023-03-27T02:25:28.774Z,0.70
2023-03-27T02:28:07.368Z,0.90
2023-03-27T02:30:36.152Z,0.80
2023-03-27T02:33:24.992Z,0.90
2023-03-27T02:36:01.119Z,1.00
2023-03-27T02:38:27.500Z,1.07
2023-03-27T02:41:05.801Z,0.80
2023-03-27T02:43:35.631Z,1.00
2023-03-27T02:46:04.786Z,0.90
2023-03-27T02:48:35.383Z,0.70
2023-03-27T02:51:04.330Z,0.80
2023-03-27T02:53:32.476Z,1.00
2023-03-27T02:56:00.527Z,1.10
2023-03-27T02:58:47.312Z,1.70
2023-03-27T03:01:16.601Z,1.43
2023-03-27T03:03:48.947Z,1.40
2023-03-27T03:06:15.374Z,1.53
2023-03-27T03:08:42.712Z,1.10
2023-03-27T03:11:10.480Z,1.10
2023-03-27T03:13:37.908Z,1.20
2023-03-27T03:16:04.694Z,1.00
2023-03-27T03:18:31.093Z,0.80
2023-03-27T03:20:57.608Z,0.80
2023-03-27T03:23:24.254Z,0.60
2023-03-27T03:25:52.642Z,0.73
2023-03-27T03:28:19.552Z,0.60
2023-03-27T03:30:50.330Z,0.63
2023-03-27T03:33:17.907Z,1.00
2023-03-27T03:35:46.853Z,0.60
2023-03-27T03:38:13.207Z,0.50
2023-03-27T03:40:39.639Z,0.80
2023-03-27T03:43:06.153Z,0.60
2023-03-27T03:45:32.624Z,0.70
2023-03-27T03:47:59.110Z,0.77
2023-03-27T03:50:25.605Z,0.90
2023-03-27T03:52:52.044Z,0.97
2023-03-27T03:55:18.555Z,0.70
2023-03-27T03:57:47.061Z,0.90
2023-03-27T04:00:13.604Z,0.60
2023-03-27T04:02:41.549Z,0.70
2023-03-27T04:05:09.579Z,2.30
2023-03-27T04:07:36.609Z,1.20
2023-03-27T04:10:03.783Z,0.80
2023-03-27T04:12:30.297Z,0.70
2023-03-27T04:15:16.993Z,1.00
2023-03-27T04:17:43.969Z,1.13
2023-03-27T04:20:12.567Z,1.07
2023-03-27T04:22:39.045Z,1.00
2023-03-27T04:25:06.383Z,0.90
2023-03-27T04:27:32.774Z,0.83
2023-03-27T04:29:59.264Z,0.80
2023-03-27T04:32:26.235Z,1.10
2023-03-27T04:34:54.438Z,1.20
2023-03-27T04:37:23.147Z,1.20
2023-03-27T04:39:50.363Z,1.20
2023-03-27T04:42:16.717Z,1.00
2023-03-27T04:44:46.476Z,3.93
2023-03-27T04:47:12.932Z,1.17
2023-03-27T04:49:40.581Z,6.43
2023-03-27T04:52:07.220Z,1.27
2023-03-27T04:54:33.864Z,1.20
2023-03-27T04:57:01.923Z,1.50
2023-03-27T04:59:32.155Z,1.30
2023-03-27T05:01:59.043Z,1.20
2023-03-27T05:04:28.621Z,1.10
2023-03-27T05:06:55.740Z,1.17
2023-03-27T05:09:22.572Z,1.23
2023-03-27T05:11:52.571Z,2.10
2023-03-27T05:14:19.971Z,1.47
2023-03-27T05:16:46.724Z,1.90
2023-03-27T05:19:13.193Z,4.17
2023-03-27T05:21:39.871Z,1.60
2023-03-27T05:24:06.487Z,2.60
2023-03-27T05:26:33.118Z,2.00
2023-03-27T05:28:59.690Z,1.87
2023-03-27T05:31:27.125Z,2.10
2023-03-27T05:33:54.102Z,2.30
2023-03-27T05:36:22.047Z,2.50
2023-03-27T05:38:48.377Z,2.07
2023-03-27T05:41:16.101Z,2.33
2023-03-27T05:43:42.923Z,2.40
2023-03-27T05:46:09.530Z,2.43
2023-03-27T05:48:36.024Z,7.40
2023-03-27T05:51:02.570Z,2.90
2023-03-27T05:53:29.055Z,3.00
2023-03-27T05:56:02.462Z,3.00
2023-03-27T05:58:29.910Z,1.80
2023-03-27T06:00:56.602Z,3.13
2023-03-27T06:03:24.641Z,2.97
2023-03-27T06:05:52.354Z,2.90
2023-03-27T06:08:19.368Z,3.03
2023-03-27T06:10:45.793Z,3.40
2023-03-27T06:13:13.725Z,3.67
2023-03-27T06:15:49.873Z,3.47
2023-03-27T06:18:28.380Z,2.80
2023-03-27T06:20:58.826Z,3.20
2023-03-27T06:23:28.596Z,3.13
2023-03-27T06:25:58.718Z,3.40
2023-03-27T06:28:28.020Z,6.40
2023-03-27T06:30:59.341Z,10.87
2023-03-27T06:33:31.059Z,6.88
2023-03-27T06:36:01.800Z,4.20
2023-03-27T06:38:32.127Z,2.58
2023-03-27T06:40:59.820Z,4.40
2023-03-27T06:43:26.448Z,5.90
2023-03-27T06:45:53.071Z,4.20
2023-03-27T06:48:21.960Z,5.00
2023-03-27T06:50:49.736Z,3.90
2023-03-27T06:53:26.377Z,5.17
2023-03-27T06:55:54.015Z,4.63
2023-03-27T06:58:20.846Z,4.30
2023-03-27T07:00:49.714Z,3.50
2023-03-27T07:03:17.744Z,2.87
2023-03-27T07:05:44.356Z,3.53
2023-03-27T07:08:22.432Z,2.60
2023-03-27T07:10:56.745Z,3.13
2023-03-27T07:13:27.113Z,2.30
2023-03-27T07:15:54.823Z,2.23
2023-03-27T07:18:22.494Z,1.57
2023-03-27T07:20:50.375Z,2.23
2023-03-27T07:23:16.894Z,2.40
2023-03-27T07:25:43.437Z,2.30
2023-03-27T07:28:12.263Z,2.80
2023-03-27T07:30:38.937Z,2.07
2023-03-27T07:33:07.235Z,2.57
2023-03-27T07:35:33.886Z,3.10
2023-03-27T07:38:01.870Z,2.60
2023-03-27T07:40:38.785Z,2.90
2023-03-27T07:43:07.361Z,2.30
2023-03-27T07:45:34.717Z,2.20
2023-03-27T07:48:09.094Z,2.10
2023-03-27T07:50:36.139Z,2.50
2023-03-27T07:53:02.689Z,2.03
2023-03-27T07:55:31.999Z,2.00
2023-03-27T07:58:02.452Z,1.77
2023-03-27T08:00:31.166Z,2.00
2023-03-27T08:03:06.787Z,1.50
2023-03-27T08:05:33.629Z,1.90
2023-03-27T08:08:00.116Z,1.90
2023-03-27T08:10:26.924Z,1.83
2023-03-27T08:12:53.379Z,1.47
2023-03-27T08:15:19.908Z,1.43
2023-03-27T08:17:46.900Z,1.47
2023-03-27T08:20:15.105Z,1.30
2023-03-27T08:22:41.501Z,1.40
2023-03-27T08:25:10.040Z,1.10
2023-03-27T08:27:36.721Z,1.50
2023-03-27T08:30:04.625Z,1.70
2023-03-27T08:32:31.765Z,1.13
2023-03-27T08:34:58.194Z,1.20
2023-03-27T08:37:24.677Z,1.17
2023-03-27T08:39:51.057Z,1.20
2023-03-27T08:42:20.489Z,1.00
2023-03-27T08:44:47.722Z,1.00
2023-03-27T08:47:16.901Z,0.90
2023-03-27T08:49:47.799Z,0.93
2023-03-27T08:52:16.297Z,1.00
2023-03-27T08:54:44.717Z,1.00
2023-03-27T08:57:16.890Z,1.10
2023-03-27T08:59:43.367Z,1.20
2023-03-27T09:02:21.964Z,1.93
2023-03-27T09:04:56.522Z,1.40
2023-03-27T09:07:34.449Z,1.00
2023-03-27T09:10:05.559Z,1.20
2023-03-27T09:15:09.660Z,1.50
2023-03-27T09:17:39.146Z,1.20
2023-03-27T09:20:10.376Z,1.27
2023-03-27T09:25:08.233Z,0.80
2023-03-27T09:27:36.416Z,1.00
2023-03-27T09:30:11.736Z,0.97
2023-03-27T09:32:38.933Z,0.90
2023-03-27T09:35:05.746Z,1.10
2023-03-27T09:37:32.149Z,1.10
2023-03-27T09:40:00.059Z,1.60
2023-03-27T09:42:28.822Z,1.10
2023-03-27T09:44:57.246Z,1.27
2023-03-27T09:47:36.393Z,1.20
2023-03-27T09:50:12.273Z,1.30
2023-03-27T09:52:39.882Z,1.30
2023-03-27T09:55:24.102Z,1.03
2023-03-27T09:57:52.730Z,1.40
2023-03-27T10:00:27.636Z,1.50
2023-03-27T10:03:01.479Z,1.43
2023-03-27T10:05:28.098Z,1.27
2023-03-27T10:07:54.534Z,1.30
2023-03-27T10:10:21.732Z,1.27
2023-03-27T10:12:53.049Z,1.40
2023-03-27T10:17:48.506Z,1.20
2023-03-27T10:20:19.670Z,1.57
2023-03-27T10:22:56.725Z,1.45
2023-03-27T10:25:29.432Z,1.63
2023-03-27T10:28:06.800Z,1.67
2023-03-27T10:30:34.221Z,1.40
2023-03-27T10:33:00.678Z,1.77
2023-03-27T10:35:28.085Z,2.00
2023-03-27T10:37:55.324Z,1.70
2023-03-27T10:40:24.423Z,2.20
2023-03-27T10:42:50.896Z,1.80
2023-03-27T10:45:19.839Z,2.00
2023-03-27T10:47:48.371Z,1.90
2023-03-27T10:50:23.703Z,2.03
2023-03-27T10:53:00.876Z,2.57
2023-03-27T10:55:44.818Z,2.40
2023-03-27T10:58:28.062Z,2.30
2023-03-27T11:01:01.638Z,2.30
2023-03-27T11:03:31.535Z,2.67
2023-03-27T11:05:58.948Z,2.37
2023-03-27T11:08:25.454Z,2.77
2023-03-27T11:10:52.629Z,2.30
2023-03-27T11:13:28.344Z,3.00
2023-03-27T11:16:14.552Z,2.80
2023-03-27T11:19:01.205Z,2.93
2023-03-27T11:21:40.491Z,2.70
2023-03-27T11:24:11.135Z,2.87
2023-03-27T11:26:45.894Z,2.63
2023-03-27T11:29:23.049Z,2.90
2023-03-27T11:31:51.675Z,3.67
2023-03-27T11:34:28.838Z,3.50
2023-03-27T11:37:12.884Z,3.70
2023-03-27T11:39:44.631Z,3.40
2023-03-27T11:42:18.972Z,4.70
2023-03-27T11:44:45.607Z,3.90
2023-03-27T11:47:27.247Z,3.80
2023-03-27T11:50:32.221Z,3.33
2023-03-27T11:53:12.853Z,2.80
2023-03-27T11:55:43.523Z,3.72
2023-03-27T11:58:39.111Z,3.10
2023-03-27T12:01:12.806Z,2.90
2023-03-27T12:04:01.681Z,2.73
2023-03-27T12:06:48.540Z,3.00
2023-03-27T12:09:15.753Z,3.10
2023-03-27T12:11:44.922Z,2.80
2023-03-27T12:14:40.633Z,3.00
2023-03-27T12:17:22.620Z,3.03
2023-03-27T12:22:24.548Z,2.93
2023-03-27T12:25:16.876Z,3.13
2023-03-27T12:28:01.210Z,3.10
2023-03-27T12:30:42.678Z,3.20
2023-03-27T12:33:24.395Z,2.90
2023-03-27T12:35:52.182Z,3.50
2023-03-27T12:38:23.862Z,3.07
2023-03-27T12:41:00.324Z,3.20
2023-03-27T12:43:31.557Z,2.93
2023-03-27T12:48:24.143Z,3.03
2023-03-27T12:50:50.455Z,3.00
2023-03-27T12:53:19.852Z,3.37
2023-03-27T12:55:46.334Z,3.13
2023-03-27T12:58:28.639Z,2.93
2023-03-27T13:01:00.368Z,3.37
2023-03-27T13:03:50.404Z,3.00
2023-03-27T13:06:35.503Z,3.20
2023-03-27T13:09:21.231Z,2.90
2023-03-27T13:11:50.899Z,3.27
2023-03-27T13:14:33.076Z,3.43
2023-03-27T13:17:08.719Z,4.00
2023-03-27T13:19:58.652Z,3.57
2023-03-27T13:22:37.115Z,3.50
2023-03-27T13:25:04.191Z,3.80
2023-03-27T13:27:37.165Z,4.33
2023-03-27T13:30:04.309Z,3.40
2023-03-27T13:32:33.829Z,3.27
2023-03-27T13:35:04.857Z,3.93
2023-03-27T13:37:36.965Z,3.65
2023-03-27T13:40:40.524Z,3.63
2023-03-27T13:43:25.149Z,3.73
2023-03-27T13:45:55.206Z,3.53
2023-03-27T13:48:48.412Z,3.50
2023-03-27T13:51:20.572Z,3.60
2023-03-27T13:54:06.076Z,3.57
2023-03-27T13:56:37.885Z,4.20
2023-03-27T13:59:10.125Z,3.33
2023-03-27T14:01:46.120Z,3.47
2023-03-27T14:04:33.214Z,3.53
2023-03-27T14:07:07.708Z,3.60
2023-03-27T14:09:43.270Z,3.43
2023-03-27T14:12:28.411Z,3.67
2023-03-27T14:15:09.913Z,4.47
2023-03-27T14:18:03.416Z,3.30
2023-03-27T14:20:29.861Z,3.70
2023-03-27T14:22:58.385Z,3.60
2023-03-27T14:25:31.275Z,3.93
2023-03-27T14:27:58.224Z,3.70
2023-03-27T14:30:29.190Z,3.40
2023-03-27T14:32:56.454Z,3.70
2023-03-27T14:35:24.682Z,3.50
2023-03-27T14:37:55.954Z,5.27
2023-03-27T14:42:50.050Z,3.97
2023-03-27T14:45:20.284Z,3.93
2023-03-27T14:47:48.167Z,4.13
2023-03-27T14:50:14.910Z,4.00
2023-03-27T14:52:41.499Z,3.63
2023-03-27T14:55:10.236Z,3.80
2023-03-27T14:57:38.747Z,4.30
2023-03-27T15:00:07.854Z,3.87
2023-03-27T15:02:35.263Z,4.20
2023-03-27T15:05:03.603Z,4.37
2023-03-27T15:07:33.823Z,4.47
2023-03-27T15:10:06.068Z,4.25
2023-03-27T15:12:36.007Z,4.10
2023-03-27T15:15:02.549Z,4.60
2023-03-27T15:17:30.636Z,3.67
2023-03-27T15:20:09.955Z,3.40
2023-03-27T15:22:38.948Z,3.67
2023-03-27T15:25:05.454Z,3.63
2023-03-27T15:27:34.148Z,3.60
2023-03-27T15:30:05.964Z,3.93
2023-03-27T15:32:42.346Z,3.60
2023-03-27T15:35:13.717Z,4.00
2023-03-27T15:37:40.266Z,3.97
2023-03-27T15:40:10.993Z,3.80
2023-03-27T15:42:52.803Z,3.60
2023-03-27T15:45:21.248Z,3.33
2023-03-27T15:47:59.883Z,3.20
2023-03-27T15:50:29.327Z,3.03
2023-03-27T15:52:58.122Z,3.10
2023-03-27T15:55:30.747Z,2.90
2023-03-27T15:57:57.671Z,3.10
2023-03-27T16:00:24.062Z,3.13
2023-03-27T16:02:51.111Z,2.83
2023-03-27T16:05:18.088Z,2.80
2023-03-27T16:07:47.132Z,3.17
2023-03-27T16:10:15.290Z,3.03
2023-03-27T16:12:55.336Z,3.37
2023-03-27T16:15:32.621Z,3.20
2023-03-27T16:18:01.761Z,3.70
2023-03-27T16:20:33.361Z,3.50
2023-03-27T16:22:59.810Z,3.57
2023-03-27T16:25:26.310Z,4.07
2023-03-27T16:27:54.805Z,4.10
2023-03-27T16:30:29.295Z,4.70
2023-03-27T16:32:56.022Z,4.60
2023-03-27T16:35:22.930Z,4.67
2023-03-27T16:37:49.613Z,4.70
2023-03-27T16:40:16.371Z,4.37
2023-03-27T16:42:42.935Z,5.30
2023-03-27T16:45:09.539Z,4.47
2023-03-27T16:47:36.236Z,3.53
2023-03-27T16:50:11.254Z,3.90
2023-03-27T16:52:40.287Z,4.30
2023-03-27T16:55:07.766Z,4.93
2023-03-27T16:57:34.589Z,4.30
2023-03-27T17:00:01.209Z,3.73
2023-03-27T17:02:28.810Z,2.80
2023-03-27T17:04:55.372Z,2.40
2023-03-27T17:07:21.874Z,2.90
2023-03-27T17:09:48.426Z,5.40
2023-03-27T17:12:14.900Z,2.60
2023-03-27T17:14:41.363Z,3.30
2023-03-27T17:17:07.878Z,2.67
2023-03-27T17:19:34.261Z,2.93
2023-03-27T17:22:00.752Z,2.67
2023-03-27T17:24:27.245Z,2.90
2023-03-27T17:26:53.696Z,3.03
2023-03-27T17:29:20.281Z,2.93
2023-03-27T17:31:46.809Z,2.97
2023-03-27T17:34:13.234Z,3.00
2023-03-27T17:36:47.083Z,3.00
2023-03-27T17:39:16.246Z,3.20
2023-03-27T17:41:42.666Z,3.10
2023-03-27T17:44:10.555Z,3.53
2023-03-27T17:46:37.168Z,4.17
2023-03-27T17:49:04.021Z,4.30
2023-03-27T17:51:30.571Z,3.80
2023-03-27T17:53:57.066Z,4.97
2023-03-27T17:56:23.667Z,4.50
2023-03-27T17:58:50.291Z,5.17
2023-03-27T18:01:18.427Z,5.80
2023-03-27T18:03:45.199Z,6.07
2023-03-27T18:06:11.830Z,7.27
2023-03-27T18:08:38.377Z,8.37
2023-03-27T18:11:09.216Z,5.87
2023-03-27T18:13:36.686Z,6.55
2023-03-27T18:16:06.762Z,5.20
2023-03-27T18:18:34.315Z,4.60
2023-03-27T18:21:01.117Z,4.93
2023-03-27T18:23:28.185Z,5.43
2023-03-27T18:25:58.158Z,6.37
2023-03-27T18:28:25.159Z,4.43
2023-03-27T18:30:59.942Z,4.40
2023-03-27T18:33:26.697Z,4.63
2023-03-27T18:35:55.649Z,4.60
2023-03-27T18:38:23.277Z,4.23
2023-03-27T18:40:49.958Z,4.77
2023-03-27T18:43:17.198Z,4.10
2023-03-27T18:45:44.208Z,3.97
2023-03-27T18:48:11.237Z,3.73
2023-03-27T18:50:37.834Z,4.33
2023-03-27T18:53:04.821Z,3.63
2023-03-27T18:55:32.326Z,4.60
2023-03-27T18:57:58.836Z,4.30
2023-03-27T19:00:25.186Z,4.73
2023-03-27T19:02:51.670Z,4.73
2023-03-27T19:05:18.301Z,6.70
2023-03-27T19:07:45.303Z,4.80
2023-03-27T19:10:12.745Z,5.23
2023-03-27T19:12:39.311Z,4.87
2023-03-27T19:15:17.230Z,4.00
2023-03-27T19:17:46.204Z,4.40
2023-03-27T19:20:13.641Z,4.43
2023-03-27T19:22:40.147Z,4.20
2023-03-27T19:25:07.157Z,3.93
2023-03-27T19:27:38.482Z,4.30
2023-03-27T19:30:06.797Z,4.40
2023-03-27T19:32:33.228Z,4.30
2023-03-27T19:34:59.685Z,4.37
2023-03-27T19:37:26.167Z,4.40
2023-03-27T19:39:52.640Z,5.10
2023-03-27T19:42:19.264Z,11.60
2023-03-27T19:44:45.664Z,8.83
2023-03-27T19:47:12.124Z,8.80
2023-03-27T19:49:38.598Z,9.30
2023-03-27T19:52:04.979Z,13.90
2023-03-27T19:54:31.568Z,11.80
2023-03-27T19:56:58.063Z,4.87
2023-03-27T19:59:30.933Z,4.60
2023-03-27T20:01:57.734Z,4.57
2023-03-27T20:04:24.165Z,5.20
2023-03-27T20:06:50.551Z,5.13
2023-03-27T20:09:17.439Z,4.83
2023-03-27T20:11:43.855Z,4.60
2023-03-27T20:14:10.876Z,4.43
2023-03-27T20:16:38.564Z,3.63
2023-03-27T20:19:05.276Z,4.93
2023-03-27T20:21:33.598Z,3.77
2023-03-27T20:24:00.182Z,3.40
2023-03-27T20:26:28.096Z,3.20
2023-03-27T20:28:54.456Z,5.10
2023-03-27T20:31:21.103Z,6.67
2023-03-27T20:33:47.792Z,2.67
2023-03-27T20:36:14.319Z,2.50
2023-03-27T20:38:40.798Z,2.80
2023-03-27T20:41:07.236Z,2.33
2023-03-27T20:43:38.489Z,2.50
2023-03-27T20:48:40.101Z,3.00
2023-03-27T20:51:17.587Z,2.73
2023-03-27T20:53:53.922Z,3.53
2023-03-27T20:56:20.885Z,2.83
2023-03-27T20:58:47.300Z,3.37
2023-03-27T21:01:14.274Z,2.73
2023-03-27T21:03:42.623Z,2.90
2023-03-27T21:06:10.426Z,2.80
2023-03-27T21:08:37.183Z,2.33
2023-03-27T21:11:03.974Z,3.30
2023-03-27T21:13:30.936Z,3.10
2023-03-27T21:15:57.720Z,4.13
2023-03-27T21:18:24.952Z,5.93
2023-03-27T21:20:51.607Z,5.60
2023-03-27T21:23:18.153Z,6.77
2023-03-27T21:25:44.681Z,5.50
2023-03-27T21:28:11.350Z,4.97
2023-03-27T21:30:46.304Z,6.33
2023-03-27T21:33:17.974Z,4.13
2023-03-27T21:35:48.070Z,4.10
2023-03-27T21:38:15.551Z,3.60
2023-03-27T21:40:42.832Z,3.13
2023-03-27T21:43:09.271Z,3.90
2023-03-27T21:45:36.070Z,3.20
2023-03-27T21:48:02.622Z,3.50
2023-03-27T21:50:28.970Z,3.80
2023-03-27T21:52:55.628Z,5.10
2023-03-27T21:55:22.067Z,3.90
2023-03-27T21:57:48.393Z,3.63
2023-03-27T22:00:15.689Z,3.33
2023-03-27T22:02:42.794Z,3.80
2023-03-27T22:05:09.614Z,3.97
2023-03-27T22:07:35.999Z,2.93
2023-03-27T22:10:05.383Z,3.10
2023-03-27T22:12:34.040Z,3.60
2023-03-27T22:15:00.471Z,3.57
2023-03-27T22:17:26.977Z,3.20
2023-03-27T22:19:54.594Z,3.40
2023-03-27T22:22:20.977Z,3.57
2023-03-27T22:24:47.464Z,3.40
2023-03-27T22:27:13.811Z,3.10
2023-03-27T22:29:40.321Z,3.50
2023-03-27T22:32:07.041Z,3.50
2023-03-27T22:34:33.405Z,3.40
2023-03-27T22:37:01.677Z,3.40
2023-03-27T22:39:28.147Z,2.97
2023-03-27T22:41:54.496Z,4.20
2023-03-27T22:44:21.409Z,4.10
2023-03-27T22:46:47.997Z,3.40
2023-03-27T22:49:14.808Z,3.80
2023-03-27T22:51:41.173Z,3.57
2023-03-27T22:54:07.670Z,3.80
2023-03-27T22:56:34.157Z,3.77
2023-03-27T22:59:00.644Z,3.13
2023-03-27T23:01:27.391Z,3.27
2023-03-27T23:03:53.921Z,3.57
2023-03-27T23:06:22.219Z,3.03
2023-03-27T23:08:49.216Z,3.33
2023-03-27T23:11:15.802Z,3.30
2023-03-27T23:13:42.531Z,3.93
2023-03-27T23:16:09.344Z,4.20
2023-03-27T23:18:36.029Z,4.13
2023-03-27T23:21:03.921Z,3.57
2023-03-27T23:23:31.371Z,4.53
2023-03-27T23:25:58.870Z,4.40
2023-03-27T23:28:26.334Z,3.57
2023-03-27T23:30:56.825Z,4.00
2023-03-27T23:33:25.208Z,4.28
2023-03-27T23:36:00.674Z,4.27
2023-03-27T23:38:27.581Z,3.80
2023-03-27T23:40:54.889Z,3.70
2023-03-27T23:43:21.430Z,3.30
2023-03-27T23:45:47.859Z,3.67
2023-03-27T23:48:14.295Z,3.63
2023-03-27T23:50:40.655Z,3.23
2023-03-27T23:53:07.077Z,3.77
2023-03-27T23:55:33.637Z,3.30
2023-03-27T23:58:00.049Z,3.40
